createdAt,value
2017-01-02T00:00:08.063Z,957.16
2017-01-02T00:01:08.066Z,957.14
2017-01-02T00:02:07.988Z,957.15
2017-01-02T00:03:07.996Z,957.16
2017-01-02T00:04:07.925Z,957.12
2017-01-02T00:05:07.919Z,957.16
2017-01-02T00:06:07.850Z,957.18
2017-01-02T00:07:07.875Z,957.18
2017-01-02T00:08:07.783Z,957.18
2017-01-02T00:09:07.744Z,957.13
2017-01-02T00:10:08.559Z,957.11
2017-01-02T00:11:08.480Z,957.10
2017-01-02T00:12:08.393Z,957.14
2017-01-02T00:13:08.271Z,957.14
2017-01-02T00:14:08.317Z,957.11
2017-01-02T00:15:08.154Z,957.12
2017-01-02T00:16:08.151Z,957.13
2017-01-02T00:17:08.162Z,957.14
2017-01-02T00:18:08.220Z,957.11
2017-01-02T00:19:08.102Z,957.14
2017-01-02T00:20:07.974Z,957.15
2017-01-02T00:21:08.055Z,957.15
2017-01-02T00:22:07.921Z,957.13
2017-01-02T00:23:07.822Z,957.04
2017-01-02T00:24:07.699Z,957.09
2017-01-02T00:25:08.590Z,957.09
2017-01-02T00:26:08.571Z,957.05
2017-01-02T00:27:08.532Z,957.06
2017-01-02T00:28:18.089Z,957.05
2017-01-02T00:29:07.554Z,957.04
2017-01-02T00:30:08.484Z,957.04
2017-01-02T00:31:08.715Z,957.00
2017-01-02T00:32:08.638Z,957.07
2017-01-02T00:33:08.445Z,957.10
2017-01-02T00:34:08.271Z,957.09
2017-01-02T00:35:08.328Z,957.08
2017-01-02T00:36:08.209Z,957.11
2017-01-02T00:37:08.071Z,957.08
2017-01-02T00:38:07.999Z,957.10
2017-01-02T00:39:07.954Z,957.10
2017-01-02T00:40:07.909Z,957.11
2017-01-02T00:41:07.855Z,957.02
2017-01-02T00:42:07.900Z,957.08
2017-01-02T00:43:07.831Z,957.10
2017-01-02T00:44:07.810Z,957.12
2017-01-02T00:45:07.790Z,957.05
2017-01-02T00:46:07.773Z,957.07
2017-01-02T00:47:07.628Z,957.08
2017-01-02T00:48:08.562Z,957.09
2017-01-02T00:49:08.654Z,957.10
2017-01-02T00:50:08.599Z,957.09
2017-01-02T00:51:08.472Z,957.03
2017-01-02T00:52:08.416Z,957.02
2017-01-02T00:53:08.314Z,957.01
2017-01-02T00:54:08.297Z,957.01
2017-01-02T00:55:08.231Z,957.02
2017-01-02T00:56:08.125Z,957.05
2017-01-02T00:57:08.062Z,957.01
2017-01-02T00:58:07.965Z,957.03
2017-01-02T00:59:07.879Z,957.03
2017-01-02T01:00:07.904Z,957.03
2017-01-02T01:01:07.482Z,957.02
2017-01-02T01:02:08.025Z,957.04
2017-01-02T01:03:07.968Z,957.09
2017-01-02T01:04:08.009Z,957.00
2017-01-02T01:05:07.998Z,957.02
2017-01-02T01:06:07.924Z,957.00
2017-01-02T01:07:07.957Z,957.04
2017-01-02T01:08:08.057Z,957.06
2017-01-02T01:09:08.013Z,957.05
2017-01-02T01:10:08.023Z,957.11
2017-01-02T01:11:07.905Z,957.12
2017-01-02T01:12:07.816Z,957.16
2017-01-02T01:13:07.626Z,957.19
2017-01-02T01:14:08.600Z,957.25
2017-01-02T01:15:08.196Z,957.21
2017-01-02T01:16:08.245Z,957.22
2017-01-02T01:17:08.724Z,957.26
2017-01-02T01:18:07.881Z,957.24
2017-01-02T01:19:07.533Z,957.26
2017-01-02T01:20:08.121Z,957.26
2017-01-02T01:21:08.010Z,957.31
2017-01-02T01:22:08.024Z,957.31
2017-01-02T01:23:08.720Z,957.28
2017-01-02T01:24:08.485Z,957.27
2017-01-02T01:25:08.562Z,957.27
2017-01-02T01:26:08.448Z,957.22
2017-01-02T01:27:08.461Z,957.29
2017-01-02T01:28:08.396Z,957.26
2017-01-02T01:29:08.289Z,957.25
2017-01-02T01:30:08.069Z,957.24
2017-01-02T01:31:08.407Z,957.25
2017-01-02T01:32:08.340Z,957.22
2017-01-02T01:33:08.267Z,957.23
2017-01-02T01:34:08.152Z,957.26
2017-01-02T01:35:07.765Z,957.21
2017-01-02T01:36:08.156Z,957.20
2017-01-02T01:37:08.455Z,957.18
2017-01-02T01:38:08.496Z,957.16
2017-01-02T01:39:08.493Z,957.22
2017-01-02T01:40:08.357Z,957.16
2017-01-02T01:41:08.399Z,957.15
2017-01-02T01:42:08.674Z,957.19
2017-01-02T01:43:08.671Z,957.16
2017-01-02T01:44:08.784Z,957.12
2017-01-02T01:45:07.743Z,957.13
2017-01-02T01:46:07.696Z,957.09
2017-01-02T01:47:08.665Z,957.09
2017-01-02T01:48:08.688Z,957.10
2017-01-02T01:49:08.532Z,957.14
2017-01-02T01:50:08.557Z,957.12
2017-01-02T01:51:08.498Z,957.12
2017-01-02T01:52:08.433Z,957.11
2017-01-02T01:53:08.315Z,957.12
2017-01-02T01:54:08.172Z,957.09
2017-01-02T01:55:08.184Z,957.16
2017-01-02T01:56:08.267Z,957.15
2017-01-02T01:57:08.291Z,957.12
2017-01-02T01:58:17.755Z,957.13
2017-01-02T01:59:07.760Z,957.11
2017-01-02T02:00:07.842Z,957.16
2017-01-02T02:01:07.875Z,957.16
2017-01-02T02:02:07.821Z,957.09
2017-01-02T02:03:07.783Z,957.09
2017-01-02T02:04:07.833Z,957.09
2017-01-02T02:05:07.813Z,957.10
2017-01-02T02:06:07.752Z,957.11
2017-01-02T02:07:07.650Z,957.14
2017-01-02T02:08:08.586Z,957.09
2017-01-02T02:09:08.597Z,957.11
2017-01-02T02:10:08.519Z,957.08
2017-01-02T02:11:08.440Z,957.14
2017-01-02T02:12:08.330Z,957.14
2017-01-02T02:13:08.221Z,957.13
2017-01-02T02:14:08.227Z,957.16
2017-01-02T02:15:08.120Z,957.08
2017-01-02T02:16:08.043Z,957.10
2017-01-02T02:17:08.191Z,957.07
2017-01-02T02:18:07.908Z,957.05
2017-01-02T02:19:07.868Z,957.10
2017-01-02T02:20:07.722Z,957.07
2017-01-02T02:21:08.697Z,957.16
2017-01-02T02:22:08.649Z,957.05
2017-01-02T02:23:08.060Z,957.07
2017-01-02T02:24:07.938Z,957.09
2017-01-02T02:25:07.876Z,957.09
2017-01-02T02:26:07.930Z,956.97
2017-01-02T02:27:07.991Z,957.07
2017-01-02T02:28:07.954Z,957.07
2017-01-02T02:29:07.740Z,957.12
2017-01-02T02:30:07.784Z,957.15
2017-01-02T02:31:07.738Z,957.07
2017-01-02T02:32:07.696Z,957.11
2017-01-02T02:33:08.509Z,957.09
2017-01-02T02:34:08.562Z,957.10
2017-01-02T02:35:08.540Z,957.18
2017-01-02T02:36:08.584Z,957.07
2017-01-02T02:37:08.588Z,957.09
2017-01-02T02:38:08.557Z,957.10
2017-01-02T02:39:08.426Z,957.13
2017-01-02T02:40:08.361Z,957.06
2017-01-02T02:41:08.345Z,957.08
2017-01-02T02:42:08.247Z,957.07
2017-01-02T02:43:08.124Z,957.05
2017-01-02T02:44:08.033Z,957.02
2017-01-02T02:45:07.955Z,957.07
2017-01-02T02:46:07.889Z,957.05
2017-01-02T02:47:07.868Z,957.09
2017-01-02T02:48:07.628Z,957.03
2017-01-02T02:49:07.937Z,957.07
2017-01-02T02:50:07.907Z,957.11
2017-01-02T02:51:07.845Z,957.08
2017-01-02T02:52:07.961Z,957.03
2017-01-02T02:53:07.972Z,957.07
2017-01-02T02:54:07.959Z,957.03
2017-01-02T02:55:07.989Z,957.02
2017-01-02T02:56:07.945Z,957.02
2017-01-02T02:57:07.949Z,957.02
2017-01-02T02:58:07.909Z,957.02
2017-01-02T02:59:07.926Z,957.10
2017-01-02T03:00:07.889Z,957.12
2017-01-02T03:01:07.830Z,957.11
2017-01-02T03:02:07.859Z,957.11
2017-01-02T03:03:07.656Z,957.11
2017-01-02T03:04:08.597Z,957.09
2017-01-02T03:05:08.460Z,957.17
2017-01-02T03:06:08.389Z,957.09
2017-01-02T03:07:08.346Z,957.13
2017-01-02T03:08:08.316Z,957.16
2017-01-02T03:09:08.305Z,957.12
2017-01-02T03:10:08.226Z,957.16
2017-01-02T03:11:08.157Z,957.13
2017-01-02T03:12:08.219Z,957.17
2017-01-02T03:13:08.193Z,957.14
2017-01-02T03:14:08.030Z,957.09
2017-01-02T03:15:08.049Z,957.11
2017-01-02T03:16:08.065Z,957.10
2017-01-02T03:17:08.155Z,957.13
2017-01-02T03:18:08.054Z,957.10
2017-01-02T03:19:07.954Z,957.15
2017-01-02T03:20:08.010Z,957.12
2017-01-02T03:21:07.991Z,957.13
2017-01-02T03:22:07.924Z,957.13
2017-01-02T03:23:07.869Z,957.10
2017-01-02T03:24:07.782Z,957.06
2017-01-02T03:25:07.792Z,957.08
2017-01-02T03:26:07.771Z,957.08
2017-01-02T03:27:07.776Z,957.03
2017-01-02T03:28:08.347Z,957.00
2017-01-02T03:29:08.346Z,957.03
2017-01-02T03:31:02.115Z,957.03
2017-01-02T03:31:08.354Z,956.98
2017-01-02T03:32:08.293Z,956.97
2017-01-02T03:33:08.208Z,956.98
2017-01-02T03:34:08.133Z,956.98
2017-01-02T03:35:08.043Z,956.97
2017-01-02T03:36:08.050Z,956.96
2017-01-02T03:37:08.256Z,956.94
2017-01-02T03:38:08.316Z,956.92
2017-01-02T03:39:08.241Z,956.94
2017-01-02T03:40:08.440Z,956.92
2017-01-02T03:41:08.511Z,956.98
2017-01-02T03:42:08.339Z,956.95
2017-01-02T03:43:08.312Z,956.93
2017-01-02T03:44:08.049Z,956.98
2017-01-02T03:45:08.653Z,956.99
2017-01-02T03:46:08.601Z,956.96
2017-01-02T03:47:08.500Z,956.96
2017-01-02T03:48:08.354Z,956.95
2017-01-02T03:49:08.414Z,956.98
2017-01-02T03:50:08.284Z,956.93
2017-01-02T03:51:08.313Z,956.97
2017-01-02T03:52:08.290Z,956.90
2017-01-02T03:53:08.300Z,956.95
2017-01-02T03:54:08.324Z,956.98
2017-01-02T03:55:08.203Z,956.93
2017-01-02T03:56:08.109Z,956.91
2017-01-02T03:57:08.205Z,956.90
2017-01-02T03:58:08.151Z,956.88
2017-01-02T03:59:08.140Z,956.91
2017-01-02T04:00:08.005Z,956.87
2017-01-02T04:01:07.825Z,956.86
2017-01-02T04:02:07.704Z,956.83
2017-01-02T04:03:08.541Z,956.89
2017-01-02T04:04:08.578Z,956.93
2017-01-02T04:05:08.594Z,956.97
2017-01-02T04:06:08.506Z,956.95
2017-01-02T04:07:07.705Z,956.99
2017-01-02T04:08:08.724Z,956.99
2017-01-02T04:09:07.783Z,957.02
2017-01-02T04:10:07.943Z,956.93
2017-01-02T04:11:08.029Z,956.93
2017-01-02T04:12:08.015Z,956.89
2017-01-02T04:13:07.929Z,956.89
2017-01-02T04:14:07.880Z,956.91
2017-01-02T04:15:07.769Z,956.92
2017-01-02T04:16:07.656Z,956.89
2017-01-02T04:17:08.673Z,956.94
2017-01-02T04:18:08.519Z,956.92
2017-01-02T04:19:08.490Z,956.89
2017-01-02T04:20:08.449Z,956.93
2017-01-02T04:21:08.359Z,956.97
2017-01-02T04:22:08.353Z,956.91
2017-01-02T04:23:08.501Z,956.97
2017-01-02T04:24:08.545Z,956.95
2017-01-02T04:25:08.617Z,957.01
2017-01-02T04:26:08.602Z,957.04
2017-01-02T04:27:08.682Z,957.02
2017-01-02T04:28:08.556Z,957.03
2017-01-02T04:29:08.489Z,957.07
2017-01-02T04:30:08.437Z,956.99
2017-01-02T04:31:08.465Z,956.98
2017-01-02T04:32:08.348Z,956.98
2017-01-02T04:33:08.289Z,956.96
2017-01-02T04:34:08.138Z,956.97
2017-01-02T04:35:08.052Z,956.97
2017-01-02T04:36:07.918Z,956.97
2017-01-02T04:37:07.896Z,956.91
2017-01-02T04:38:07.784Z,956.87
2017-01-02T04:39:07.801Z,956.92
2017-01-02T04:40:07.739Z,956.90
2017-01-02T04:41:08.727Z,956.92
2017-01-02T04:42:08.678Z,956.88
2017-01-02T04:43:08.656Z,956.86
2017-01-02T04:44:08.561Z,956.90
2017-01-02T04:45:08.418Z,956.88
2017-01-02T04:46:08.249Z,956.90
2017-01-02T04:47:07.889Z,956.89
2017-01-02T04:48:08.537Z,956.87
2017-01-02T04:49:08.578Z,956.85
2017-01-02T04:50:08.484Z,956.85
2017-01-02T04:51:08.397Z,956.86
2017-01-02T04:52:08.395Z,956.86
2017-01-02T04:53:08.379Z,956.86
2017-01-02T04:54:08.359Z,956.91
2017-01-02T04:55:08.287Z,956.90
2017-01-02T04:56:08.213Z,956.92
2017-01-02T04:57:08.268Z,956.93
2017-01-02T04:58:08.202Z,956.93
2017-01-02T04:59:08.204Z,956.92
2017-01-02T05:00:08.110Z,956.88
2017-01-02T05:01:08.087Z,956.97
2017-01-02T05:02:08.194Z,956.95
2017-01-02T05:03:08.096Z,956.94
2017-01-02T05:04:08.135Z,956.98
2017-01-02T05:05:08.126Z,957.00
2017-01-02T05:06:08.013Z,956.93
2017-01-02T05:07:07.958Z,956.94
2017-01-02T05:08:07.831Z,956.94
2017-01-02T05:09:07.910Z,956.93
2017-01-02T05:10:07.849Z,956.92
2017-01-02T05:11:07.813Z,956.94
2017-01-02T05:12:07.798Z,956.95
2017-01-02T05:13:07.779Z,957.02
2017-01-02T05:14:07.775Z,957.00
2017-01-02T05:15:07.880Z,956.97
2017-01-02T05:16:07.908Z,957.00
2017-01-02T05:17:08.004Z,957.04
2017-01-02T05:18:07.958Z,956.97
2017-01-02T05:19:08.002Z,957.01
2017-01-02T05:20:08.011Z,957.03
2017-01-02T05:21:07.814Z,957.03
2017-01-02T05:22:07.951Z,957.04
2017-01-02T05:23:07.920Z,957.03
2017-01-02T05:24:08.009Z,957.06
2017-01-02T05:25:10.355Z,957.05
2017-01-02T05:26:08.064Z,957.05
2017-01-02T05:27:08.274Z,956.98
2017-01-02T05:28:08.150Z,956.99
2017-01-02T05:29:08.132Z,956.97
2017-01-02T05:30:08.163Z,956.96
2017-01-02T05:31:08.274Z,956.93
2017-01-02T05:32:08.374Z,956.95
2017-01-02T05:33:08.263Z,956.99
2017-01-02T05:34:08.240Z,956.99
2017-01-02T05:35:08.256Z,956.99
2017-01-02T05:36:08.146Z,956.95
2017-01-02T05:37:08.164Z,957.00
2017-01-02T05:38:08.118Z,957.02
2017-01-02T05:39:08.035Z,956.97
2017-01-02T05:40:08.069Z,956.99
2017-01-02T05:41:08.072Z,957.05
2017-01-02T05:42:08.063Z,957.06
2017-01-02T05:43:07.970Z,957.08
2017-01-02T05:44:07.904Z,957.05
2017-01-02T05:45:07.831Z,957.07
2017-01-02T05:46:07.793Z,957.07
2017-01-02T05:47:07.794Z,957.04
2017-01-02T05:48:07.805Z,957.10
2017-01-02T05:49:07.780Z,957.07
2017-01-02T05:50:07.786Z,957.04
2017-01-02T05:51:07.809Z,957.08
2017-01-02T05:52:07.817Z,957.18
2017-01-02T05:53:07.770Z,957.15
2017-01-02T05:54:07.804Z,957.15
2017-01-02T05:55:07.781Z,957.17
2017-01-02T05:56:07.729Z,957.21
2017-01-02T05:57:08.653Z,957.20
2017-01-02T05:58:08.529Z,957.20
2017-01-02T05:59:08.487Z,957.23
2017-01-02T06:00:08.445Z,957.23
2017-01-02T06:01:08.320Z,957.29
2017-01-02T06:02:08.152Z,957.23
2017-01-02T06:03:08.824Z,957.22
2017-01-02T06:04:07.788Z,957.19
2017-01-02T06:05:07.813Z,957.22
2017-01-02T06:06:07.747Z,957.22
2017-01-02T06:07:08.662Z,957.24
2017-01-02T06:08:08.509Z,957.29
2017-01-02T06:09:08.449Z,957.33
2017-01-02T06:10:08.477Z,957.28
2017-01-02T06:11:08.476Z,957.26
2017-01-02T06:12:08.368Z,957.28
2017-01-02T06:13:08.226Z,957.27
2017-01-02T06:14:08.177Z,957.34
2017-01-02T06:15:08.077Z,957.30
2017-01-02T06:16:08.095Z,957.28
2017-01-02T06:17:08.127Z,957.31
2017-01-02T06:18:08.043Z,957.29
2017-01-02T06:19:08.034Z,957.23
2017-01-02T06:20:08.047Z,957.21
2017-01-02T06:21:08.072Z,957.26
2017-01-02T06:22:08.119Z,957.23
2017-01-02T06:23:07.967Z,957.35
2017-01-02T06:24:07.957Z,957.32
2017-01-02T06:25:07.952Z,957.27
2017-01-02T06:26:07.879Z,957.30
2017-01-02T06:27:07.879Z,957.28
2017-01-02T06:28:17.366Z,957.30
2017-01-02T06:29:08.335Z,957.30
2017-01-02T06:30:08.202Z,957.32
2017-01-02T06:31:08.191Z,957.33
2017-01-02T06:32:08.039Z,957.36
2017-01-02T06:33:08.007Z,957.36
2017-01-02T06:34:08.001Z,957.36
2017-01-02T06:35:07.914Z,957.35
2017-01-02T06:36:07.958Z,957.41
2017-01-02T06:37:07.886Z,957.41
2017-01-02T06:38:07.894Z,957.39
2017-01-02T06:39:07.877Z,957.45
2017-01-02T06:40:07.877Z,957.44
2017-01-02T06:41:07.804Z,957.45
2017-01-02T06:42:07.734Z,957.50
2017-01-02T06:43:08.757Z,957.48
2017-01-02T06:44:07.667Z,957.47
2017-01-02T06:45:08.606Z,957.46
2017-01-02T06:46:08.112Z,957.50
2017-01-02T06:47:08.112Z,957.55
2017-01-02T06:48:08.158Z,957.54
2017-01-02T06:49:15.767Z,957.57
2017-01-02T06:50:07.768Z,957.59
2017-01-02T06:51:07.900Z,957.60
2017-01-02T06:52:07.864Z,957.60
2017-01-02T06:53:07.883Z,957.62
2017-01-02T06:54:07.920Z,957.60
2017-01-02T06:55:07.958Z,957.58
2017-01-02T06:56:08.017Z,957.57
2017-01-02T06:57:08.037Z,957.60
2017-01-02T06:58:08.476Z,957.57
2017-01-02T06:59:08.495Z,957.52
2017-01-02T07:00:08.565Z,957.54
2017-01-02T07:01:08.494Z,957.54
2017-01-02T07:02:08.429Z,957.50
2017-01-02T07:03:08.426Z,957.49
2017-01-02T07:04:08.381Z,957.50
2017-01-02T07:05:08.418Z,957.53
2017-01-02T07:06:08.274Z,957.52
2017-01-02T07:07:08.209Z,957.56
2017-01-02T07:08:08.234Z,957.57
2017-01-02T07:09:08.215Z,957.54
2017-01-02T07:10:08.299Z,957.51
2017-01-02T07:11:08.253Z,957.53
2017-01-02T07:12:08.245Z,957.53
2017-01-02T07:13:08.285Z,957.53
2017-01-02T07:14:08.287Z,957.57
2017-01-02T07:15:08.206Z,957.54
2017-01-02T07:16:08.088Z,957.57
2017-01-02T07:17:08.103Z,957.61
2017-01-02T07:18:08.055Z,957.61
2017-01-02T07:19:08.004Z,957.61
2017-01-02T07:20:08.113Z,957.63
2017-01-02T07:21:08.150Z,957.65
2017-01-02T07:22:08.119Z,957.59
2017-01-02T07:23:08.101Z,957.56
2017-01-02T07:24:08.005Z,957.60
2017-01-02T07:25:07.903Z,957.65
2017-01-02T07:26:08.007Z,957.60
2017-01-02T07:27:08.026Z,957.61
2017-01-02T07:28:07.949Z,957.63
2017-01-02T07:29:07.862Z,957.65
2017-01-02T07:30:07.809Z,957.66
2017-01-02T07:31:07.787Z,957.69
2017-01-02T07:32:07.727Z,957.72
2017-01-02T07:33:08.652Z,957.63
2017-01-02T07:34:08.516Z,957.64
2017-01-02T07:35:08.510Z,957.65
2017-01-02T07:36:08.324Z,957.69
2017-01-02T07:37:08.247Z,957.66
2017-01-02T07:38:08.240Z,957.72
2017-01-02T07:39:08.225Z,957.65
2017-01-02T07:40:08.173Z,957.72
2017-01-02T07:41:08.152Z,957.78
2017-01-02T07:42:08.048Z,957.80
2017-01-02T07:43:07.931Z,957.73
2017-01-02T07:44:07.894Z,957.74
2017-01-02T07:45:07.900Z,957.78
2017-01-02T07:46:07.818Z,957.78
2017-01-02T07:47:07.392Z,957.78
2017-01-02T07:48:08.478Z,957.81
2017-01-02T07:49:08.412Z,957.79
2017-01-02T07:50:08.393Z,957.83
2017-01-02T07:51:08.359Z,957.83
2017-01-02T07:52:08.225Z,957.91
2017-01-02T07:53:08.174Z,957.87
2017-01-02T07:54:08.082Z,957.86
2017-01-02T07:55:08.128Z,957.90
2017-01-02T07:56:08.054Z,957.88
2017-01-02T07:57:08.132Z,957.87
2017-01-02T07:58:08.062Z,957.88
2017-01-02T07:59:08.026Z,957.86
2017-01-02T08:00:07.991Z,957.85
2017-01-02T08:01:07.817Z,957.87
2017-01-02T08:02:07.852Z,957.86
2017-01-02T08:03:07.882Z,957.89
2017-01-02T08:04:07.853Z,957.88
2017-01-02T08:05:07.824Z,957.88
2017-01-02T08:06:07.747Z,957.91
2017-01-02T08:07:08.512Z,957.84
2017-01-02T08:08:08.555Z,957.87
2017-01-02T08:09:08.513Z,957.84
2017-01-02T08:10:08.351Z,957.84
2017-01-02T08:11:08.224Z,957.84
2017-01-02T08:12:08.226Z,957.86
2017-01-02T08:13:08.261Z,957.88
2017-01-02T08:14:08.153Z,957.84
2017-01-02T08:15:08.073Z,957.86
2017-01-02T08:16:08.034Z,957.81
2017-01-02T08:17:08.043Z,957.77
2017-01-02T08:18:08.051Z,957.75
2017-01-02T08:19:07.988Z,957.78
2017-01-02T08:20:07.975Z,957.85
2017-01-02T08:21:08.009Z,957.82
2017-01-02T08:22:08.012Z,957.84
2017-01-02T08:23:07.998Z,957.85
2017-01-02T08:24:07.987Z,957.83
2017-01-02T08:25:07.939Z,957.84
2017-01-02T08:26:07.966Z,957.81
2017-01-02T08:27:08.008Z,957.86
2017-01-02T08:28:07.862Z,957.83
2017-01-02T08:29:07.958Z,957.81
2017-01-02T08:30:07.959Z,957.75
2017-01-02T08:31:08.288Z,957.78
2017-01-02T08:32:08.296Z,957.75
2017-01-02T08:33:08.298Z,957.77
2017-01-02T08:34:08.230Z,957.78
2017-01-02T08:35:08.167Z,957.82
2017-01-02T08:36:08.037Z,957.84
2017-01-02T08:37:07.979Z,957.87
2017-01-02T08:38:08.016Z,957.85
2017-01-02T08:39:08.576Z,957.83
2017-01-02T08:40:08.564Z,957.83
2017-01-02T08:41:08.470Z,957.88
2017-01-02T08:42:08.384Z,957.83
2017-01-02T08:43:08.318Z,957.83
2017-01-02T08:44:08.385Z,957.87
2017-01-02T08:45:08.446Z,957.86
2017-01-02T08:46:08.341Z,957.91
2017-01-02T08:47:08.281Z,957.95
2017-01-02T08:48:08.190Z,957.95
2017-01-02T08:49:08.157Z,958.00
2017-01-02T08:50:08.202Z,957.98
2017-01-02T08:51:08.181Z,957.97
2017-01-02T08:52:08.175Z,957.95
2017-01-02T08:53:08.133Z,957.94
2017-01-02T08:54:08.036Z,957.94
2017-01-02T08:55:07.958Z,957.90
2017-01-02T08:56:07.941Z,957.91
2017-01-02T08:57:08.111Z,957.85
2017-01-02T08:58:07.985Z,957.82
2017-01-02T08:59:07.863Z,957.82
2017-01-02T09:00:08.231Z,957.84
2017-01-02T09:01:08.217Z,957.86
2017-01-02T09:02:08.148Z,957.96
2017-01-02T09:03:08.202Z,957.94
2017-01-02T09:04:08.176Z,957.92
2017-01-02T09:05:08.161Z,957.91
2017-01-02T09:06:08.126Z,957.93
2017-01-02T09:07:08.071Z,958.00
2017-01-02T09:08:07.995Z,957.96
2017-01-02T09:09:07.986Z,957.95
2017-01-02T09:10:07.617Z,957.99
2017-01-02T09:11:07.968Z,957.95
2017-01-02T09:12:08.038Z,958.04
2017-01-02T09:13:08.039Z,957.96
2017-01-02T09:14:08.245Z,957.98
2017-01-02T09:15:08.257Z,958.02
2017-01-02T09:16:08.147Z,958.05
2017-01-02T09:17:08.218Z,958.08
2017-01-02T09:18:08.307Z,958.05
2017-01-02T09:19:08.600Z,958.05
2017-01-02T09:20:08.542Z,957.96
2017-01-02T09:21:08.599Z,957.99
2017-01-02T09:22:08.599Z,958.07
2017-01-02T09:23:08.585Z,958.04
2017-01-02T09:24:08.558Z,958.06
2017-01-02T09:25:08.497Z,958.05
2017-01-02T09:26:08.627Z,957.94
2017-01-02T09:27:08.664Z,957.95
2017-01-02T09:28:07.850Z,957.94
2017-01-02T09:29:07.897Z,957.91
2017-01-02T09:30:07.916Z,957.90
2017-01-02T09:31:09.309Z,957.94
2017-01-02T09:32:08.464Z,957.92
2017-01-02T09:33:08.406Z,957.86
2017-01-02T09:34:08.411Z,957.84
2017-01-02T09:35:08.398Z,957.81
2017-01-02T09:36:08.208Z,957.84
2017-01-02T09:37:08.206Z,957.90
2017-01-02T09:38:08.105Z,957.96
2017-01-02T09:39:08.053Z,957.94
2017-01-02T09:40:07.998Z,957.93
2017-01-02T09:41:07.737Z,957.95
2017-01-02T09:42:07.980Z,958.03
2017-01-02T09:43:08.092Z,958.03
2017-01-02T09:44:08.189Z,958.05
2017-01-02T09:45:09.188Z,958.07
2017-01-02T09:46:08.261Z,958.05
2017-01-02T09:47:08.338Z,958.05
2017-01-02T09:48:08.307Z,958.08
2017-01-02T09:49:08.320Z,958.10
2017-01-02T09:50:08.328Z,958.06
2017-01-02T09:51:08.296Z,958.07
2017-01-02T09:52:08.358Z,958.10
2017-01-02T09:53:08.348Z,958.06
2017-01-02T09:54:08.375Z,958.09
2017-01-02T09:55:08.349Z,958.00
2017-01-02T09:56:08.360Z,957.98
2017-01-02T09:57:08.391Z,957.98
2017-01-02T09:58:08.328Z,958.00
2017-01-02T09:59:07.922Z,958.01
2017-01-02T10:00:08.429Z,957.96
2017-01-02T10:01:08.868Z,957.86
2017-01-02T10:02:07.899Z,957.87
2017-01-02T10:03:07.929Z,957.84
2017-01-02T10:04:07.805Z,957.86
2017-01-02T10:05:07.799Z,957.80
2017-01-02T10:06:07.774Z,957.75
2017-01-02T10:07:07.848Z,957.91
2017-01-02T10:08:07.879Z,957.81
2017-01-02T10:09:08.000Z,957.80
2017-01-02T10:10:07.963Z,957.80
2017-01-02T10:11:08.002Z,957.80
2017-01-02T10:12:08.020Z,957.83
2017-01-02T10:13:07.968Z,957.77
2017-01-02T10:14:07.875Z,957.74
2017-01-02T10:15:07.862Z,957.76
2017-01-02T10:16:07.899Z,957.69
2017-01-02T10:17:08.140Z,957.72
2017-01-02T10:18:08.131Z,957.69
2017-01-02T10:19:08.112Z,957.71
2017-01-02T10:20:08.163Z,957.70
2017-01-02T10:21:08.094Z,957.77
2017-01-02T10:22:08.197Z,957.72
2017-01-02T10:23:08.234Z,957.71
2017-01-02T10:24:08.229Z,957.70
2017-01-02T10:25:08.246Z,957.68
2017-01-02T10:26:08.291Z,957.65
2017-01-02T10:27:08.439Z,957.69
2017-01-02T10:28:08.465Z,957.70
2017-01-02T10:29:08.519Z,957.67
2017-01-02T10:30:08.572Z,957.65
2017-01-02T10:31:08.583Z,957.61
2017-01-02T10:32:08.579Z,957.61
2017-01-02T10:33:09.102Z,957.65
2017-01-02T10:34:08.073Z,957.65
2017-01-02T10:35:08.219Z,957.67
2017-01-02T10:36:08.123Z,957.63
2017-01-02T10:37:08.122Z,957.62
2017-01-02T10:38:08.259Z,957.58
2017-01-02T10:39:08.214Z,957.62
2017-01-02T10:40:08.673Z,957.65
2017-01-02T10:41:08.568Z,957.62
2017-01-02T10:42:08.527Z,957.64
2017-01-02T10:43:08.638Z,957.65
2017-01-02T10:44:08.666Z,957.63
2017-01-02T10:45:08.699Z,957.62
2017-01-02T10:46:08.359Z,957.64
2017-01-02T10:47:08.891Z,957.64
2017-01-02T10:48:08.175Z,957.65
2017-01-02T10:49:08.161Z,957.66
2017-01-02T10:50:08.249Z,957.66
2017-01-02T10:51:08.308Z,957.64
2017-01-02T10:52:08.345Z,957.58
2017-01-02T10:53:08.352Z,957.52
2017-01-02T10:54:08.353Z,957.52
2017-01-02T10:55:08.280Z,957.54
2017-01-02T10:56:08.168Z,957.50
2017-01-02T10:57:08.213Z,957.54
2017-01-02T10:58:17.739Z,957.52
2017-01-02T10:59:07.880Z,957.60
2017-01-02T11:00:08.119Z,957.53
2017-01-02T11:01:08.143Z,957.54
2017-01-02T11:02:08.269Z,957.57
2017-01-02T11:03:08.205Z,957.62
2017-01-02T11:04:08.176Z,957.54
2017-01-02T11:05:08.294Z,957.52
2017-01-02T11:06:08.372Z,957.55
2017-01-02T11:07:08.414Z,957.58
2017-01-02T11:08:08.576Z,957.56
2017-01-02T11:09:08.657Z,957.58
2017-01-02T11:10:08.610Z,957.53
2017-01-02T11:11:08.524Z,957.48
2017-01-02T11:12:08.544Z,957.42
2017-01-02T11:13:09.387Z,957.46
2017-01-02T11:14:08.385Z,957.42
2017-01-02T11:15:08.364Z,957.38
2017-01-02T11:16:08.340Z,957.33
2017-01-02T11:17:08.497Z,957.33
2017-01-02T11:18:08.490Z,957.34
2017-01-02T11:19:08.437Z,957.34
2017-01-02T11:20:08.434Z,957.31
2017-01-02T11:21:08.332Z,957.30
2017-01-02T11:22:08.378Z,957.36
2017-01-02T11:23:08.419Z,957.33
2017-01-02T11:24:08.415Z,957.33
2017-01-02T11:25:08.304Z,957.33
2017-01-02T11:26:08.297Z,957.33
2017-01-02T11:27:08.334Z,957.34
2017-01-02T11:28:08.209Z,957.36
2017-01-02T11:29:07.825Z,957.35
2017-01-02T11:30:08.584Z,957.41
2017-01-02T11:31:09.011Z,957.41
2017-01-02T11:32:07.998Z,957.40
2017-01-02T11:33:27.413Z,957.47
2017-01-02T11:34:08.473Z,957.42
2017-01-02T11:35:08.471Z,957.45
2017-01-02T11:36:08.482Z,957.41
2017-01-02T11:37:08.428Z,957.39
2017-01-02T11:38:08.417Z,957.35
2017-01-02T11:39:08.316Z,957.34
2017-01-02T11:40:08.443Z,957.37
2017-01-02T11:41:08.405Z,957.32
2017-01-02T11:42:08.231Z,957.35
2017-01-02T11:43:08.138Z,957.28
2017-01-02T11:44:07.993Z,957.26
2017-01-02T11:45:08.086Z,957.29
2017-01-02T11:46:07.979Z,957.23
2017-01-02T11:47:08.164Z,957.23
2017-01-02T11:48:08.606Z,957.26
2017-01-02T11:49:08.550Z,957.18
2017-01-02T11:50:08.435Z,957.17
2017-01-02T11:51:08.495Z,957.14
2017-01-02T11:52:08.434Z,957.10
2017-01-02T11:53:08.328Z,957.05
2017-01-02T11:54:08.315Z,957.04
2017-01-02T11:55:08.292Z,956.97
2017-01-02T11:56:08.282Z,956.99
2017-01-02T11:57:08.349Z,957.00
2017-01-02T11:58:17.807Z,956.98
2017-01-02T11:59:21.528Z,956.96
2017-01-02T12:00:08.661Z,956.96
2017-01-02T12:01:08.568Z,956.97
2017-01-02T12:02:08.567Z,957.02
2017-01-02T12:03:08.489Z,957.03
2017-01-02T12:04:08.391Z,957.03
2017-01-02T12:05:08.531Z,956.98
2017-01-02T12:06:08.635Z,956.98
2017-01-02T12:07:08.358Z,956.95
2017-01-02T12:08:08.393Z,956.98
2017-01-02T12:09:07.675Z,956.98
2017-01-02T12:10:07.955Z,956.94
2017-01-02T12:11:09.618Z,956.96
2017-01-02T12:12:08.263Z,956.96
2017-01-02T12:13:08.342Z,956.99
2017-01-02T12:14:42.109Z,957.02
2017-01-02T12:15:08.851Z,957.03
2017-01-02T12:16:42.379Z,956.98
2017-01-02T12:17:08.014Z,957.02
2017-01-02T12:18:13.322Z,956.99
2017-01-02T12:19:08.446Z,957.00
2017-01-02T12:20:08.013Z,957.00
2017-01-02T12:21:07.917Z,956.98
2017-01-02T12:22:07.582Z,957.00
2017-01-02T12:23:08.363Z,956.95
2017-01-02T12:24:08.021Z,956.98
2017-01-02T12:25:08.453Z,957.00
2017-01-02T12:26:08.871Z,956.97
2017-01-02T12:27:07.823Z,956.96
2017-01-02T12:28:08.016Z,957.01